sensor_id;sensor_type;location;lat;lon;timestamp;temperature;humidity
40053;DHT22;25758;48.200;16.338;2023-06-04T00:02:12;18.00;74.00
40053;DHT22;25758;48.200;16.338;2023-06-04T00:04:38;18.00;74.10
40053;DHT22;25758;48.200;16.338;2023-06-04T00:07:04;18.00;74.10
40053;DHT22;25758;48.200;16.338;2023-06-04T00:09:30;18.00;74.10
40053;DHT22;25758;48.200;16.338;2023-06-04T00:11:56;18.00;74.30
40053;DHT22;25758;48.200;16.338;2023-06-04T00:14:21;18.00;74.40
40053;DHT22;25758;48.200;16.338;2023-06-04T00:16:47;17.90;74.30
40053;DHT22;25758;48.200;16.338;2023-06-04T00:19:13;17.90;74.50
40053;DHT22;25758;48.200;16.338;2023-06-04T00:21:38;17.90;74.50
40053;DHT22;25758;48.200;16.338;2023-06-04T00:24:04;17.90;74.80
40053;DHT22;25758;48.200;16.338;2023-06-04T00:26:30;17.90;74.60
40053;DHT22;25758;48.200;16.338;2023-06-04T00:28:55;17.90;74.70
40053;DHT22;25758;48.200;16.338;2023-06-04T00:31:21;17.90;74.70
40053;DHT22;25758;48.200;16.338;2023-06-04T00:33:47;17.90;74.70
40053;DHT22;25758;48.200;16.338;2023-06-04T00:36:13;17.90;74.80
40053;DHT22;25758;48.200;16.338;2023-06-04T00:38:39;17.90;74.70
40053;DHT22;25758;48.200;16.338;2023-06-04T00:41:04;17.90;74.90
40053;DHT22;25758;48.200;16.338;2023-06-04T00:43:30;17.90;74.90
40053;DHT22;25758;48.200;16.338;2023-06-04T00:45:57;17.80;74.90
40053;DHT22;25758;48.200;16.338;2023-06-04T00:48:23;17.90;74.90
40053;DHT22;25758;48.200;16.338;2023-06-04T00:50:50;17.80;74.90
40053;DHT22;25758;48.200;16.338;2023-06-04T00:53:16;17.80;75.00
40053;DHT22;25758;48.200;16.338;2023-06-04T00:55:42;17.80;75.30
40053;DHT22;25758;48.200;16.338;2023-06-04T00:58:08;17.80;75.10
40053;DHT22;25758;48.200;16.338;2023-06-04T01:00:35;17.80;75.20
40053;DHT22;25758;48.200;16.338;2023-06-04T01:03:05;17.80;75.30
40053;DHT22;25758;48.200;16.338;2023-06-04T01:05:43;17.80;75.40
40053;DHT22;25758;48.200;16.338;2023-06-04T01:08:11;17.70;75.40
40053;DHT22;25758;48.200;16.338;2023-06-04T01:10:49;17.80;75.40
40053;DHT22;25758;48.200;16.338;2023-06-04T01:13:15;17.70;76.10
40053;DHT22;25758;48.200;16.338;2023-06-04T01:15:41;17.70;75.70
40053;DHT22;25758;48.200;16.338;2023-06-04T01:18:06;17.70;75.80
40053;DHT22;25758;48.200;16.338;2023-06-04T01:20:42;17.70;75.80
40053;DHT22;25758;48.200;16.338;2023-06-04T01:23:19;17.60;75.80
40053;DHT22;25758;48.200;16.338;2023-06-04T01:25:46;17.60;75.90
40053;DHT22;25758;48.200;16.338;2023-06-04T01:28:15;17.60;76.00
40053;DHT22;25758;48.200;16.338;2023-06-04T01:30:44;17.60;76.20
40053;DHT22;25758;48.200;16.338;2023-06-04T01:33:17;17.60;76.20
40053;DHT22;25758;48.200;16.338;2023-06-04T01:35:43;17.50;76.30
40053;DHT22;25758;48.200;16.338;2023-06-04T01:38:10;17.60;76.50
40053;DHT22;25758;48.200;16.338;2023-06-04T01:40:35;17.60;76.40
40053;DHT22;25758;48.200;16.338;2023-06-04T01:43:02;17.50;76.50
40053;DHT22;25758;48.200;16.338;2023-06-04T01:45:28;17.50;76.70
40053;DHT22;25758;48.200;16.338;2023-06-04T01:47:54;17.50;76.80
40053;DHT22;25758;48.200;16.338;2023-06-04T01:50:21;17.50;76.90
40053;DHT22;25758;48.200;16.338;2023-06-04T01:52:47;17.50;77.00
40053;DHT22;25758;48.200;16.338;2023-06-04T01:55:14;17.40;77.00
40053;DHT22;25758;48.200;16.338;2023-06-04T01:57:41;17.40;77.40
40053;DHT22;25758;48.200;16.338;2023-06-04T02:00:08;17.40;77.40
40053;DHT22;25758;48.200;16.338;2023-06-04T02:02:35;17.30;77.50
40053;DHT22;25758;48.200;16.338;2023-06-04T02:05:02;17.30;77.50
40053;DHT22;25758;48.200;16.338;2023-06-04T02:09:53;17.30;77.50
40053;DHT22;25758;48.200;16.338;2023-06-04T02:12:19;17.30;78.00
40053;DHT22;25758;48.200;16.338;2023-06-04T02:14:44;17.30;78.00
40053;DHT22;25758;48.200;16.338;2023-06-04T02:17:11;17.30;78.00
40053;DHT22;25758;48.200;16.338;2023-06-04T02:19:44;17.30;78.30
40053;DHT22;25758;48.200;16.338;2023-06-04T02:22:14;17.30;78.30
40053;DHT22;25758;48.200;16.338;2023-06-04T02:24:40;17.30;78.30
40053;DHT22;25758;48.200;16.338;2023-06-04T02:27:09;17.20;78.50
40053;DHT22;25758;48.200;16.338;2023-06-04T02:29:35;17.30;78.90
40053;DHT22;25758;48.200;16.338;2023-06-04T02:32:01;17.30;78.60
40053;DHT22;25758;48.200;16.338;2023-06-04T02:34:27;17.20;78.80
40053;DHT22;25758;48.200;16.338;2023-06-04T02:36:52;17.20;78.80
40053;DHT22;25758;48.200;16.338;2023-06-04T02:39:19;17.20;78.90
40053;DHT22;25758;48.200;16.338;2023-06-04T02:41:45;17.20;78.80
40053;DHT22;25758;48.200;16.338;2023-06-04T02:44:10;17.20;78.80
40053;DHT22;25758;48.200;16.338;2023-06-04T02:46:37;17.20;79.00
40053;DHT22;25758;48.200;16.338;2023-06-04T02:49:02;17.20;78.80
40053;DHT22;25758;48.200;16.338;2023-06-04T02:51:28;17.20;78.80
40053;DHT22;25758;48.200;16.338;2023-06-04T02:53:54;17.20;78.90
40053;DHT22;25758;48.200;16.338;2023-06-04T02:56:20;17.20;79.00
40053;DHT22;25758;48.200;16.338;2023-06-04T02:58:55;17.10;79.70
40053;DHT22;25758;48.200;16.338;2023-06-04T03:01:22;17.20;79.10
40053;DHT22;25758;48.200;16.338;2023-06-04T03:03:49;17.10;79.20
40053;DHT22;25758;48.200;16.338;2023-06-04T03:06:15;17.10;79.20
40053;DHT22;25758;48.200;16.338;2023-06-04T03:08:41;17.10;79.40
40053;DHT22;25758;48.200;16.338;2023-06-04T03:11:07;17.10;79.50
40053;DHT22;25758;48.200;16.338;2023-06-04T03:13:33;17.00;79.80
40053;DHT22;25758;48.200;16.338;2023-06-04T03:15:59;17.10;79.90
40053;DHT22;25758;48.200;16.338;2023-06-04T03:18:28;17.10;79.90
40053;DHT22;25758;48.200;16.338;2023-06-04T03:20:54;17.10;79.90
40053;DHT22;25758;48.200;16.338;2023-06-04T03:23:21;17.10;80.20
40053;DHT22;25758;48.200;16.338;2023-06-04T03:25:47;17.20;80.10
40053;DHT22;25758;48.200;16.338;2023-06-04T03:28:13;17.10;80.40
40053;DHT22;25758;48.200;16.338;2023-06-04T03:30:40;17.10;80.40
40053;DHT22;25758;48.200;16.338;2023-06-04T03:33:05;17.10;80.70
40053;DHT22;25758;48.200;16.338;2023-06-04T03:35:31;17.10;80.70
40053;DHT22;25758;48.200;16.338;2023-06-04T03:37:57;17.10;81.00
40053;DHT22;25758;48.200;16.338;2023-06-04T03:40:22;17.10;81.10
40053;DHT22;25758;48.200;16.338;2023-06-04T03:42:48;17.10;81.10
40053;DHT22;25758;48.200;16.338;2023-06-04T03:45:14;17.10;81.30
40053;DHT22;25758;48.200;16.338;2023-06-04T03:47:39;17.00;81.40
40053;DHT22;25758;48.200;16.338;2023-06-04T03:50:06;17.00;81.40
40053;DHT22;25758;48.200;16.338;2023-06-04T03:52:31;17.00;81.60
40053;DHT22;25758;48.200;16.338;2023-06-04T03:54:58;17.00;81.90
40053;DHT22;25758;48.200;16.338;2023-06-04T03:57:24;16.90;81.80
40053;DHT22;25758;48.200;16.338;2023-06-04T03:59:49;17.00;82.00
40053;DHT22;25758;48.200;16.338;2023-06-04T04:02:15;17.00;82.00
40053;DHT22;25758;48.200;16.338;2023-06-04T04:04:43;16.90;82.10
40053;DHT22;25758;48.200;16.338;2023-06-04T04:07:09;17.00;82.30
40053;DHT22;25758;48.200;16.338;2023-06-04T04:09:36;17.00;82.10
40053;DHT22;25758;48.200;16.338;2023-06-04T04:12:02;17.00;82.20
40053;DHT22;25758;48.200;16.338;2023-06-04T04:14:27;17.00;82.10
40053;DHT22;25758;48.200;16.338;2023-06-04T04:16:53;17.00;82.10
40053;DHT22;25758;48.200;16.338;2023-06-04T04:19:18;17.00;82.00
40053;DHT22;25758;48.200;16.338;2023-06-04T04:21:44;17.00;82.00
40053;DHT22;25758;48.200;16.338;2023-06-04T04:24:25;17.00;82.10
40053;DHT22;25758;48.200;16.338;2023-06-04T04:26:51;17.00;82.10
40053;DHT22;25758;48.200;16.338;2023-06-04T04:29:23;17.00;82.30
40053;DHT22;25758;48.200;16.338;2023-06-04T04:31:53;17.00;82.30
40053;DHT22;25758;48.200;16.338;2023-06-04T04:34:25;17.00;82.50
40053;DHT22;25758;48.200;16.338;2023-06-04T04:36:51;17.00;82.70
40053;DHT22;25758;48.200;16.338;2023-06-04T04:39:25;16.90;82.90
40053;DHT22;25758;48.200;16.338;2023-06-04T04:41:51;16.90;83.10
40053;DHT22;25758;48.200;16.338;2023-06-04T04:44:17;16.90;83.00
40053;DHT22;25758;48.200;16.338;2023-06-04T04:46:43;17.00;82.90
40053;DHT22;25758;48.200;16.338;2023-06-04T04:49:08;17.00;83.10
40053;DHT22;25758;48.200;16.338;2023-06-04T04:51:35;17.00;83.40
40053;DHT22;25758;48.200;16.338;2023-06-04T04:54:01;17.00;83.30
40053;DHT22;25758;48.200;16.338;2023-06-04T04:56:27;17.00;83.60
40053;DHT22;25758;48.200;16.338;2023-06-04T04:58:53;17.00;83.60
40053;DHT22;25758;48.200;16.338;2023-06-04T05:01:20;17.10;83.60
40053;DHT22;25758;48.200;16.338;2023-06-04T05:03:46;17.10;83.70
40053;DHT22;25758;48.200;16.338;2023-06-04T05:06:11;17.10;83.70
40053;DHT22;25758;48.200;16.338;2023-06-04T05:08:37;17.10;84.60
40053;DHT22;25758;48.200;16.338;2023-06-04T05:11:03;17.10;84.30
40053;DHT22;25758;48.200;16.338;2023-06-04T05:13:29;17.10;84.60
40053;DHT22;25758;48.200;16.338;2023-06-04T05:15:54;17.10;84.40
40053;DHT22;25758;48.200;16.338;2023-06-04T05:18:20;17.10;84.60
40053;DHT22;25758;48.200;16.338;2023-06-04T05:20:46;17.20;84.50
40053;DHT22;25758;48.200;16.338;2023-06-04T05:23:12;17.10;84.80
40053;DHT22;25758;48.200;16.338;2023-06-04T05:25:38;17.20;84.60
40053;DHT22;25758;48.200;16.338;2023-06-04T05:28:04;17.20;84.30
40053;DHT22;25758;48.200;16.338;2023-06-04T05:30:32;17.20;84.80
40053;DHT22;25758;48.200;16.338;2023-06-04T05:32:59;17.20;84.70
40053;DHT22;25758;48.200;16.338;2023-06-04T05:35:25;17.20;84.90
40053;DHT22;25758;48.200;16.338;2023-06-04T05:37:51;17.20;84.80
40053;DHT22;25758;48.200;16.338;2023-06-04T05:40:20;17.30;84.70
40053;DHT22;25758;48.200;16.338;2023-06-04T05:42:47;17.30;84.80
40053;DHT22;25758;48.200;16.338;2023-06-04T05:45:13;17.30;84.60
40053;DHT22;25758;48.200;16.338;2023-06-04T05:47:39;17.40;84.80
40053;DHT22;25758;48.200;16.338;2023-06-04T05:50:05;17.40;84.60
40053;DHT22;25758;48.200;16.338;2023-06-04T05:52:32;17.40;85.30
40053;DHT22;25758;48.200;16.338;2023-06-04T05:54:59;17.40;84.70
40053;DHT22;25758;48.200;16.338;2023-06-04T05:57:25;17.50;84.70
40053;DHT22;25758;48.200;16.338;2023-06-04T05:59:51;17.50;84.50
40053;DHT22;25758;48.200;16.338;2023-06-04T06:02:16;17.40;84.60
40053;DHT22;25758;48.200;16.338;2023-06-04T06:04:42;17.40;84.70
40053;DHT22;25758;48.200;16.338;2023-06-04T06:07:08;17.40;84.50
40053;DHT22;25758;48.200;16.338;2023-06-04T06:09:34;17.40;84.70
40053;DHT22;25758;48.200;16.338;2023-06-04T06:12:01;17.40;85.00
40053;DHT22;25758;48.200;16.338;2023-06-04T06:14:26;17.50;85.30
40053;DHT22;25758;48.200;16.338;2023-06-04T06:16:52;17.50;84.70
40053;DHT22;25758;48.200;16.338;2023-06-04T06:19:18;17.50;84.50
40053;DHT22;25758;48.200;16.338;2023-06-04T06:21:44;17.60;84.70
40053;DHT22;25758;48.200;16.338;2023-06-04T06:24:10;17.60;84.60
40053;DHT22;25758;48.200;16.338;2023-06-04T06:26:35;17.60;84.90
40053;DHT22;25758;48.200;16.338;2023-06-04T06:29:02;17.60;84.60
40053;DHT22;25758;48.200;16.338;2023-06-04T06:31:27;17.70;84.80
40053;DHT22;25758;48.200;16.338;2023-06-04T06:33:53;17.60;83.60
40053;DHT22;25758;48.200;16.338;2023-06-04T06:36:18;17.60;84.00
40053;DHT22;25758;48.200;16.338;2023-06-04T06:38:45;17.60;84.10
40053;DHT22;25758;48.200;16.338;2023-06-04T06:41:11;17.60;84.00
40053;DHT22;25758;48.200;16.338;2023-06-04T06:43:37;17.70;84.10
40053;DHT22;25758;48.200;16.338;2023-06-04T06:46:03;17.60;84.00
40053;DHT22;25758;48.200;16.338;2023-06-04T06:48:28;17.70;84.10
40053;DHT22;25758;48.200;16.338;2023-06-04T06:50:54;17.70;84.10
40053;DHT22;25758;48.200;16.338;2023-06-04T06:53:20;17.60;84.10
40053;DHT22;25758;48.200;16.338;2023-06-04T06:55:46;17.60;84.10
40053;DHT22;25758;48.200;16.338;2023-06-04T06:58:12;17.60;84.10
40053;DHT22;25758;48.200;16.338;2023-06-04T07:00:37;17.60;84.40
40053;DHT22;25758;48.200;16.338;2023-06-04T07:03:03;17.60;84.70
40053;DHT22;25758;48.200;16.338;2023-06-04T07:05:29;17.70;85.00
40053;DHT22;25758;48.200;16.338;2023-06-04T07:07:56;17.70;85.20
40053;DHT22;25758;48.200;16.338;2023-06-04T07:10:23;17.60;84.70
40053;DHT22;25758;48.200;16.338;2023-06-04T07:12:49;17.70;84.90
40053;DHT22;25758;48.200;16.338;2023-06-04T07:15:15;17.70;85.00
40053;DHT22;25758;48.200;16.338;2023-06-04T07:17:41;17.70;84.90
40053;DHT22;25758;48.200;16.338;2023-06-04T07:20:07;17.80;85.20
40053;DHT22;25758;48.200;16.338;2023-06-04T07:22:35;17.80;85.00
40053;DHT22;25758;48.200;16.338;2023-06-04T07:25:01;17.90;84.90
40053;DHT22;25758;48.200;16.338;2023-06-04T07:27:26;17.90;84.90
40053;DHT22;25758;48.200;16.338;2023-06-04T07:29:52;17.90;84.90
40053;DHT22;25758;48.200;16.338;2023-06-04T07:32:18;17.90;85.10
40053;DHT22;25758;48.200;16.338;2023-06-04T07:34:44;18.00;84.80
40053;DHT22;25758;48.200;16.338;2023-06-04T07:37:09;18.10;84.60
40053;DHT22;25758;48.200;16.338;2023-06-04T07:39:35;18.20;84.70
40053;DHT22;25758;48.200;16.338;2023-06-04T07:42:01;18.30;84.80
40053;DHT22;25758;48.200;16.338;2023-06-04T07:44:26;18.30;84.60
40053;DHT22;25758;48.200;16.338;2023-06-04T07:46:52;18.40;84.40
40053;DHT22;25758;48.200;16.338;2023-06-04T07:49:18;18.50;83.80
40053;DHT22;25758;48.200;16.338;2023-06-04T07:51:43;18.50;83.80
40053;DHT22;25758;48.200;16.338;2023-06-04T07:54:09;18.50;83.80
40053;DHT22;25758;48.200;16.338;2023-06-04T07:56:35;18.50;83.70
40053;DHT22;25758;48.200;16.338;2023-06-04T07:59:01;18.50;84.50
40053;DHT22;25758;48.200;16.338;2023-06-04T08:01:27;18.40;84.20
40053;DHT22;25758;48.200;16.338;2023-06-04T08:03:52;18.50;85.10
40053;DHT22;25758;48.200;16.338;2023-06-04T08:06:18;18.70;84.80
40053;DHT22;25758;48.200;16.338;2023-06-04T08:08:45;18.90;84.40
40053;DHT22;25758;48.200;16.338;2023-06-04T08:11:15;19.20;84.20
40053;DHT22;25758;48.200;16.338;2023-06-04T08:16:07;19.60;82.60
40053;DHT22;25758;48.200;16.338;2023-06-04T08:18:33;19.60;81.90
40053;DHT22;25758;48.200;16.338;2023-06-04T08:20:58;19.60;82.70
40053;DHT22;25758;48.200;16.338;2023-06-04T08:23:24;19.60;82.70
40053;DHT22;25758;48.200;16.338;2023-06-04T08:25:49;19.50;82.80
40053;DHT22;25758;48.200;16.338;2023-06-04T08:28:15;19.30;83.20
40053;DHT22;25758;48.200;16.338;2023-06-04T08:30:42;19.30;83.60
40053;DHT22;25758;48.200;16.338;2023-06-04T08:33:08;19.20;83.70
40053;DHT22;25758;48.200;16.338;2023-06-04T08:35:33;19.20;84.10
40053;DHT22;25758;48.200;16.338;2023-06-04T08:37:59;19.20;84.30
40053;DHT22;25758;48.200;16.338;2023-06-04T08:40:25;19.30;84.30
40053;DHT22;25758;48.200;16.338;2023-06-04T08:42:51;19.30;84.30
40053;DHT22;25758;48.200;16.338;2023-06-04T08:45:23;19.30;84.30
40053;DHT22;25758;48.200;16.338;2023-06-04T08:47:50;19.20;84.30
40053;DHT22;25758;48.200;16.338;2023-06-04T08:50:24;19.10;84.60
40053;DHT22;25758;48.200;16.338;2023-06-04T08:52:53;19.20;84.70
40053;DHT22;25758;48.200;16.338;2023-06-04T08:55:20;19.20;85.20
40053;DHT22;25758;48.200;16.338;2023-06-04T08:57:47;19.20;85.70
40053;DHT22;25758;48.200;16.338;2023-06-04T09:00:14;19.20;85.10
40053;DHT22;25758;48.200;16.338;2023-06-04T09:02:41;19.10;85.60
40053;DHT22;25758;48.200;16.338;2023-06-04T09:05:07;19.00;85.70
40053;DHT22;25758;48.200;16.338;2023-06-04T09:07:39;19.00;86.20
40053;DHT22;25758;48.200;16.338;2023-06-04T09:10:10;19.10;86.50
40053;DHT22;25758;48.200;16.338;2023-06-04T09:12:41;19.20;86.40
40053;DHT22;25758;48.200;16.338;2023-06-04T09:15:08;19.30;86.70
40053;DHT22;25758;48.200;16.338;2023-06-04T09:17:33;19.30;86.30
40053;DHT22;25758;48.200;16.338;2023-06-04T09:19:59;19.20;86.20
40053;DHT22;25758;48.200;16.338;2023-06-04T09:22:35;19.40;86.70
40053;DHT22;25758;48.200;16.338;2023-06-04T09:25:03;19.40;86.30
40053;DHT22;25758;48.200;16.338;2023-06-04T09:27:38;19.50;86.00
40053;DHT22;25758;48.200;16.338;2023-06-04T09:30:05;19.50;85.70
40053;DHT22;25758;48.200;16.338;2023-06-04T09:32:32;19.50;85.80
40053;DHT22;25758;48.200;16.338;2023-06-04T09:35:12;19.60;85.50
40053;DHT22;25758;48.200;16.338;2023-06-04T09:37:38;19.80;85.60
40053;DHT22;25758;48.200;16.338;2023-06-04T09:40:05;19.80;84.80
40053;DHT22;25758;48.200;16.338;2023-06-04T09:42:42;19.90;85.00
40053;DHT22;25758;48.200;16.338;2023-06-04T09:45:08;19.90;84.90
40053;DHT22;25758;48.200;16.338;2023-06-04T09:47:41;20.00;84.60
40053;DHT22;25758;48.200;16.338;2023-06-04T09:50:08;20.00;84.50
40053;DHT22;25758;48.200;16.338;2023-06-04T09:52:34;20.00;84.70
40053;DHT22;25758;48.200;16.338;2023-06-04T09:55:00;20.10;84.40
40053;DHT22;25758;48.200;16.338;2023-06-04T09:57:26;20.10;84.60
40053;DHT22;25758;48.200;16.338;2023-06-04T09:59:54;20.20;84.70
40053;DHT22;25758;48.200;16.338;2023-06-04T10:02:22;20.30;84.40
40053;DHT22;25758;48.200;16.338;2023-06-04T10:04:58;20.50;84.60
40053;DHT22;25758;48.200;16.338;2023-06-04T10:07:25;20.60;84.30
40053;DHT22;25758;48.200;16.338;2023-06-04T10:09:55;20.80;84.00
40053;DHT22;25758;48.200;16.338;2023-06-04T10:12:26;21.00;83.70
40053;DHT22;25758;48.200;16.338;2023-06-04T10:15:02;21.10;82.10
40053;DHT22;25758;48.200;16.338;2023-06-04T10:17:28;21.20;82.50
40053;DHT22;25758;48.200;16.338;2023-06-04T10:19:56;21.30;81.90
40053;DHT22;25758;48.200;16.338;2023-06-04T10:22:24;21.40;82.70
40053;DHT22;25758;48.200;16.338;2023-06-04T10:24:50;21.50;82.10
40053;DHT22;25758;48.200;16.338;2023-06-04T10:27:17;21.60;82.00
40053;DHT22;25758;48.200;16.338;2023-06-04T10:29:46;21.70;81.60
40053;DHT22;25758;48.200;16.338;2023-06-04T10:32:11;21.80;81.30
40053;DHT22;25758;48.200;16.338;2023-06-04T10:34:37;21.90;80.90
40053;DHT22;25758;48.200;16.338;2023-06-04T10:37:03;22.00;80.60
40053;DHT22;25758;48.200;16.338;2023-06-04T10:39:30;22.10;80.60
40053;DHT22;25758;48.200;16.338;2023-06-04T10:42:00;22.30;80.20
40053;DHT22;25758;48.200;16.338;2023-06-04T10:44:27;22.30;80.10
40053;DHT22;25758;48.200;16.338;2023-06-04T10:46:52;22.50;79.70
40053;DHT22;25758;48.200;16.338;2023-06-04T10:49:26;22.50;79.10
40053;DHT22;25758;48.200;16.338;2023-06-04T10:51:53;22.50;78.60
40053;DHT22;25758;48.200;16.338;2023-06-04T10:54:25;22.50;78.70
40053;DHT22;25758;48.200;16.338;2023-06-04T10:56:52;22.40;79.00
40053;DHT22;25758;48.200;16.338;2023-06-04T10:59:18;22.30;78.90
40053;DHT22;25758;48.200;16.338;2023-06-04T11:01:45;22.20;78.60
40053;DHT22;25758;48.200;16.338;2023-06-04T11:04:24;22.10;79.00
40053;DHT22;25758;48.200;16.338;2023-06-04T11:07:07;22.00;80.20
40053;DHT22;25758;48.200;16.338;2023-06-04T11:09:36;22.00;79.70
40053;DHT22;25758;48.200;16.338;2023-06-04T11:12:05;22.00;79.00
40053;DHT22;25758;48.200;16.338;2023-06-04T11:14:31;22.10;79.50
40053;DHT22;25758;48.200;16.338;2023-06-04T11:16:56;22.20;79.10
40053;DHT22;25758;48.200;16.338;2023-06-04T11:19:22;22.10;78.20
40053;DHT22;25758;48.200;16.338;2023-06-04T11:21:48;22.10;78.40
40053;DHT22;25758;48.200;16.338;2023-06-04T11:24:16;22.10;78.40
40053;DHT22;25758;48.200;16.338;2023-06-04T11:26:41;22.00;78.80
40053;DHT22;25758;48.200;16.338;2023-06-04T11:29:09;22.00;78.70
40053;DHT22;25758;48.200;16.338;2023-06-04T11:31:44;22.00;78.40
40053;DHT22;25758;48.200;16.338;2023-06-04T11:34:10;21.90;78.60
40053;DHT22;25758;48.200;16.338;2023-06-04T11:36:39;21.90;79.70
40053;DHT22;25758;48.200;16.338;2023-06-04T11:39:05;21.90;79.40
40053;DHT22;25758;48.200;16.338;2023-06-04T11:41:35;21.90;79.50
40053;DHT22;25758;48.200;16.338;2023-06-04T11:44:03;21.90;79.40
40053;DHT22;25758;48.200;16.338;2023-06-04T11:46:32;21.90;79.90
40053;DHT22;25758;48.200;16.338;2023-06-04T11:48:58;21.90;79.60
40053;DHT22;25758;48.200;16.338;2023-06-04T11:51:24;21.90;79.70
40053;DHT22;25758;48.200;16.338;2023-06-04T11:53:50;21.90;79.70
40053;DHT22;25758;48.200;16.338;2023-06-04T11:56:16;22.00;79.70
40053;DHT22;25758;48.200;16.338;2023-06-04T11:58:42;22.00;79.50
40053;DHT22;25758;48.200;16.338;2023-06-04T12:01:08;22.00;79.90
40053;DHT22;25758;48.200;16.338;2023-06-04T12:03:39;22.00;80.00
40053;DHT22;25758;48.200;16.338;2023-06-04T12:06:15;22.00;79.50
40053;DHT22;25758;48.200;16.338;2023-06-04T12:08:52;22.00;79.50
40053;DHT22;25758;48.200;16.338;2023-06-04T12:13:55;21.90;78.90
40053;DHT22;25758;48.200;16.338;2023-06-04T12:16:22;22.00;79.60
40053;DHT22;25758;48.200;16.338;2023-06-04T12:18:47;22.10;79.90
40053;DHT22;25758;48.200;16.338;2023-06-04T12:23:45;21.90;80.50
40053;DHT22;25758;48.200;16.338;2023-06-04T12:26:23;21.90;80.20
40053;DHT22;25758;48.200;16.338;2023-06-04T12:29:01;21.90;80.20
40053;DHT22;25758;48.200;16.338;2023-06-04T12:31:27;22.00;80.30
40053;DHT22;25758;48.200;16.338;2023-06-04T12:34:00;22.00;80.30
40053;DHT22;25758;48.200;16.338;2023-06-04T12:36:26;22.10;80.40
40053;DHT22;25758;48.200;16.338;2023-06-04T12:38:57;22.10;80.20
40053;DHT22;25758;48.200;16.338;2023-06-04T12:41:24;22.10;80.50
40053;DHT22;25758;48.200;16.338;2023-06-04T12:43:50;22.10;80.70
40053;DHT22;25758;48.200;16.338;2023-06-04T12:46:16;22.10;80.70
40053;DHT22;25758;48.200;16.338;2023-06-04T12:48:42;22.10;80.60
40053;DHT22;25758;48.200;16.338;2023-06-04T12:51:08;22.10;80.40
40053;DHT22;25758;48.200;16.338;2023-06-04T12:53:38;22.20;80.80
40053;DHT22;25758;48.200;16.338;2023-06-04T12:56:05;22.20;81.10
40053;DHT22;25758;48.200;16.338;2023-06-04T12:58:31;22.10;80.70
40053;DHT22;25758;48.200;16.338;2023-06-04T13:00:56;22.20;81.50
40053;DHT22;25758;48.200;16.338;2023-06-04T13:03:22;22.20;81.10
40053;DHT22;25758;48.200;16.338;2023-06-04T13:05:48;22.20;81.10
40053;DHT22;25758;48.200;16.338;2023-06-04T13:08:14;22.20;81.00
40053;DHT22;25758;48.200;16.338;2023-06-04T13:10:40;22.20;81.30
40053;DHT22;25758;48.200;16.338;2023-06-04T13:13:06;22.20;81.30
40053;DHT22;25758;48.200;16.338;2023-06-04T13:15:31;22.10;81.30
40053;DHT22;25758;48.200;16.338;2023-06-04T13:17:57;22.10;81.90
40053;DHT22;25758;48.200;16.338;2023-06-04T13:20:23;22.10;82.20
40053;DHT22;25758;48.200;16.338;2023-06-04T13:22:48;22.00;82.70
40053;DHT22;25758;48.200;16.338;2023-06-04T13:25:14;22.00;82.40
40053;DHT22;25758;48.200;16.338;2023-06-04T13:27:40;22.10;82.60
40053;DHT22;25758;48.200;16.338;2023-06-04T13:30:06;22.00;82.60
40053;DHT22;25758;48.200;16.338;2023-06-04T13:32:32;22.10;83.00
40053;DHT22;25758;48.200;16.338;2023-06-04T13:34:57;22.00;83.40
40053;DHT22;25758;48.200;16.338;2023-06-04T13:37:23;22.00;83.80
40053;DHT22;25758;48.200;16.338;2023-06-04T13:39:49;21.90;83.50
40053;DHT22;25758;48.200;16.338;2023-06-04T13:42:15;21.90;83.40
40053;DHT22;25758;48.200;16.338;2023-06-04T13:44:41;21.90;83.70
40053;DHT22;25758;48.200;16.338;2023-06-04T13:47:06;21.90;83.60
40053;DHT22;25758;48.200;16.338;2023-06-04T13:49:33;21.90;83.00
40053;DHT22;25758;48.200;16.338;2023-06-04T13:51:59;21.90;84.00
40053;DHT22;25758;48.200;16.338;2023-06-04T13:54:25;21.90;84.30
40053;DHT22;25758;48.200;16.338;2023-06-04T13:56:51;21.80;84.50
40053;DHT22;25758;48.200;16.338;2023-06-04T13:59:17;21.80;84.80
40053;DHT22;25758;48.200;16.338;2023-06-04T14:01:43;21.90;84.50
40053;DHT22;25758;48.200;16.338;2023-06-04T14:04:09;21.90;84.80
40053;DHT22;25758;48.200;16.338;2023-06-04T14:06:36;21.80;85.10
40053;DHT22;25758;48.200;16.338;2023-06-04T14:09:03;21.80;85.00
40053;DHT22;25758;48.200;16.338;2023-06-04T14:11:31;21.80;85.30
40053;DHT22;25758;48.200;16.338;2023-06-04T14:13:58;21.80;85.50
40053;DHT22;25758;48.200;16.338;2023-06-04T14:16:23;21.80;85.40
40053;DHT22;25758;48.200;16.338;2023-06-04T14:18:49;21.80;85.50
40053;DHT22;25758;48.200;16.338;2023-06-04T14:21:15;21.90;85.40
40053;DHT22;25758;48.200;16.338;2023-06-04T14:23:40;21.80;84.10
40053;DHT22;25758;48.200;16.338;2023-06-04T14:26:06;21.70;84.40
40053;DHT22;25758;48.200;16.338;2023-06-04T14:28:32;21.70;84.50
40053;DHT22;25758;48.200;16.338;2023-06-04T14:30:57;21.70;83.40
40053;DHT22;25758;48.200;16.338;2023-06-04T14:33:24;21.60;82.70
40053;DHT22;25758;48.200;16.338;2023-06-04T14:35:49;21.50;81.00
40053;DHT22;25758;48.200;16.338;2023-06-04T14:38:16;21.50;81.70
40053;DHT22;25758;48.200;16.338;2023-06-04T14:40:42;21.40;82.10
40053;DHT22;25758;48.200;16.338;2023-06-04T14:43:13;21.30;83.00
40053;DHT22;25758;48.200;16.338;2023-06-04T14:45:38;21.30;83.80
40053;DHT22;25758;48.200;16.338;2023-06-04T14:48:05;21.30;84.20
40053;DHT22;25758;48.200;16.338;2023-06-04T14:50:31;21.30;83.90
40053;DHT22;25758;48.200;16.338;2023-06-04T14:52:56;21.40;82.40
40053;DHT22;25758;48.200;16.338;2023-06-04T14:55:23;21.50;81.60
40053;DHT22;25758;48.200;16.338;2023-06-04T14:57:49;21.50;81.40
40053;DHT22;25758;48.200;16.338;2023-06-04T15:00:16;21.40;81.70
40053;DHT22;25758;48.200;16.338;2023-06-04T15:02:42;21.50;82.00
40053;DHT22;25758;48.200;16.338;2023-06-04T15:05:08;21.30;82.20
40053;DHT22;25758;48.200;16.338;2023-06-04T15:07:33;21.30;82.60
40053;DHT22;25758;48.200;16.338;2023-06-04T15:09:59;21.20;83.40
40053;DHT22;25758;48.200;16.338;2023-06-04T15:12:27;21.20;84.00
40053;DHT22;25758;48.200;16.338;2023-06-04T15:14:53;21.20;84.20
40053;DHT22;25758;48.200;16.338;2023-06-04T15:17:18;21.00;85.00
40053;DHT22;25758;48.200;16.338;2023-06-04T15:19:44;21.00;85.80
40053;DHT22;25758;48.200;16.338;2023-06-04T15:22:10;21.00;86.10
40053;DHT22;25758;48.200;16.338;2023-06-04T15:24:35;21.00;86.50